Terminal Aerodrome Forecast
Issued by NWS

Home | Current Version | Previous Version | Text Only | Print | Product List | Glossary On
Versions: 1 2 3 4 5 6 7 8 9 10 11 12 13 14 15 16 17 18 19 20 21 22 23 24 25
000
FTUS45 KCYS 220520
TAFRWL
TAF
KRWL 220520Z 2206/2306 24013KT P6SM SCT250
     FM220800 24015G26KT P6SM BKN200
     FM221000 23020G30KT P6SM BKN100
     FM221800 23028G40KT P6SM -RA BKN030 OVC080
     FM230000 25028G42KT 3SM -SN SCT015 OVC025=

USA.gov is the U.S. government's official web portal to all federal, state and local government web resources and services.